LTBJ/ADB METAR and TAF weather

Enter ICAO airport designator
Station Type Date Time Source
LTBJ METAR 2022/12/08 12:20 UTC NOAA

LTBJ 081220Z 16007KT 8000 SCT030 BKN100 16/10 Q1018 TEMPO 5000 SHRA BR


Station Type Date Time Source
LTBJ Decoded METAR 2022/12/08 12:20 UTC NOAA

Izmir / Adnan Menderes, Turkey (LTBJ) 38-16N 027-09E 120M
Dec 08, 2022 - 07:20 AM EST / 2022.12.08 1220 UTC
Wind: from the SSE (160 degrees) at 8 MPH (7 KT):0
Visibility: 4 mile(s):0
Sky conditions: mostly cloudy
Temperature: 60 F (16 C)
Dew Point: 50 F (10 C)
Relative Humidity: 67%
Pressure (altimeter): 30.06 in. Hg (1018 hPa)
ob: LTBJ 081220Z 16007KT 8000 SCT030 BKN100 16/10 Q1018 TEMPO 5000 SHRA BR
cycle: 12

Station Type Date Time Source
LTBJ TAF 2022/12/08 12:03 UTC NOAA

TAF LTBJ 081040Z 0812/0912 VRB02KT 7000 SCT030 BKN100
TEMPO 0812/0816 16012KT 5000 SHRA BR BKN025
BECMG 0816/0818 4000 BR PROB40
TEMPO 0816/0820 1200 -SHRA BCFG SCT005 BKN025 PROB40
TEMPO 0822/0902 0800 FG BKN005
TEMPO 0904/0907 0500 FG BKN002
BECMG 0907/0909 7000

Example: see airport list